Latest Weather Observations for Nowra

IDN60801

Issued at 7:12 pm EST Wednesday 12 August 2020 (issued every 10 minutes, with the page automatically refreshed every 10 minutes)

About weather observations | Map of weather stations | Latest weather observations for NSW | Other Formats
Station Details ID: 068072 Name: NOWRA RAN AIR STATION AWS Lat: -34.95 Lon: 150.54 Height: 109.0 m
Data from the previous 72 hours. | See also: Recent months at Nowra
Date/Time
EST
Temp
°C
App
Temp
°C
Dew
Point
°C
Rel
Hum
%
Delta-T
°C
Wind Press
QNH
hPa
Press
MSL
hPa
Rain since
9am
mm
Dir  Spd
km/h
Gust
km/h
Spd
kts
Gust
kts
12/07:00pm 13.7 13.3 13.1 96 0.3 WNW 7 9 4 5 1011.9 1012.0 0.2
12/06:30pm 13.9 13.8 13.3 96 0.3 WSW 6 11 3 6 1011.9 1012.0 0.0
12/06:00pm 13.9 14.9 13.1 95 0.4 CALM 0 0 0 0 1011.5 1011.6 0.0
12/05:30pm 14.8 15.5 12.3 85 1.4 CALM 0 0 0 0 1011.5 1011.6 0.0
12/05:00pm 15.2 15.4 12.0 81 1.7 SSE 2 15 1 8 1011.2 1011.3 0.0
12/04:30pm 15.7 15.6 10.9 73 2.6 E 2 13 1 7 1011.0 1011.1 0.0
12/04:00pm 16.0 14.9 10.7 71 2.8 NNE 7 9 4 5 1010.8 1010.8 0.0
12/03:30pm 16.0 15.2 11.0 72 2.7 NNE 6 9 3 5 1010.9 1011.0 0.0
12/03:00pm 16.0 14.6 11.0 72 2.7 NNE 9 11 5 6 1011.0 1011.1 0.0
12/02:30pm 15.9 13.9 10.2 69 3.0 NNE 11 13 6 7 1011.2 1011.3 0.0
12/02:00pm 16.4 14.2 9.3 63 3.7 NNE 11 13 6 7 1011.3 1011.4 0.0
12/01:30pm 16.7 16.1 9.1 61 3.9 N 2 11 1 6 1011.7 1011.8 0.0
12/01:00pm 16.6 14.4 7.8 56 4.5 N 9 13 5 7 1011.9 1012.0 0.0
12/12:30pm 17.2 15.2 8.6 57 4.4 NNE 9 15 5 8 1012.6 1012.7 0.0
12/12:00pm 16.3 14.6 8.3 59 4.1 N 7 9 4 5 1013.4 1013.4 0.0
12/11:30am 15.3 13.6 8.3 63 3.5 NW 7 9 4 5 1014.0 1014.0 0.0
12/11:00am 14.6 13.0 8.8 68 3.0 NW 7 11 4 6 1014.6 1014.6 0.0
12/10:30am 13.6 12.0 8.9 73 2.4 NW 7 11 4 6 1015.1 1015.1 0.0
12/10:00am 13.3 10.9 8.6 73 2.4 WNW 11 13 6 7 1015.3 1015.3 0.0
12/09:30am 12.5 11.3 9.7 83 1.4 NW 6 11 3 6 1015.7 1015.7 0.0
12/09:00am 11.8 12.0 10.4 91 0.7 CALM 0 0 0 0 1015.8 1015.8 0.0
12/08:30am 11.1 9.7 10.9 99 0.1 W 9 11 5 6 1015.9 1015.9 0.0
12/08:00am 9.0 8.8 9.0 100 0.0 CALM 0 0 0 0 1015.7 1015.7 0.0
12/07:30am 8.0 7.5 8.0 100 0.0 CALM 0 0 0 0 1015.7 1015.7 0.0
12/07:00am 8.1 7.7 8.1 100 0.0 CALM 0 0 0 0 1015.8 1015.8 0.0
12/06:30am 8.4 6.3 8.4 100 0.0 NW 9 9 5 5 1015.6 1015.6 0.0
12/06:00am 8.7 7.1 8.6 99 0.0 NW 7 9 4 5 1015.6 1015.6 0.0
12/05:30am 9.0 6.7 8.9 99 0.0 NW 11 13 6 7 1015.7 1015.7 0.0
12/05:00am 8.8 6.4 8.7 99 0.0 NW 11 11 6 6 1015.7 1015.7 0.0
12/04:30am 8.8 6.8 8.8 100 0.0 NW 9 11 5 6 1015.6 1015.6 0.0
12/04:00am 8.5 6.8 8.4 99 0.0 NW 7 7 4 4 1015.7 1015.7 0.0
12/03:30am 8.9 7.0 8.9 100 0.0 NW 9 11 5 6 1015.8 1015.8 0.0
12/03:00am 8.6 8.3 8.5 99 0.0 CALM 0 0 0 0 1016.2 1016.2 0.0
12/02:30am 8.7 8.0 8.6 99 0.0 WSW 2 7 1 4 1016.3 1016.3 0.0
12/02:00am 9.3 6.7 9.2 99 0.0 W 13 15 7 8 1016.6 1016.6 0.0
12/01:30am 7.9 7.4 7.9 100 0.0 CALM 0 0 0 0 1017.1 1017.1 0.0
12/01:00am 8.9 7.0 8.9 100 0.0 NW 9 11 5 6 1017.2 1017.2 0.0
12/12:30am 8.6 6.2 8.6 100 0.0 WNW 11 13 6 7 1017.2 1017.2 0.0
12/12:00am 8.5 6.1 8.5 100 0.0 NW 11 15 6 8 1017.4 1017.4 0.0
 
Date/Time
EST
Temp
°C
App
Temp
°C
Dew
Point
°C
Rel
Hum
%
Delta-T
°C
Wind Press
QNH
hPa
Press
MSL
hPa
Rain since
9am
mm
Dir  Spd
km/h
Gust
km/h
Spd
kts
Gust
kts
11/11:30pm 8.5 6.5 8.5 100 0.0 NW 9 13 5 7 1017.5 1017.5 0.0
11/11:00pm 7.8 7.3 7.8 100 0.0 CALM 0 0 0 0 1017.3 1017.3 0.0
11/10:30pm 6.9 5.8 6.9 100 0.0 WNW 2 7 1 4 1017.6 1017.6 0.0
11/10:00pm 6.6 5.8 6.6 100 0.0 CALM 0 0 0 0 1017.5 1017.5 0.0
11/09:30pm 7.1 6.4 7.0 99 0.0 CALM 0 0 0 0 1018.0 1018.0 0.0
11/09:00pm 7.8 6.9 7.7 99 0.0 NW 2 7 1 4 1018.4 1018.4 0.0
11/08:30pm 8.2 7.8 8.1 99 0.0 CALM 0 0 0 0 1018.4 1018.4 0.0
11/08:00pm 9.2 7.6 8.9 98 0.1 NNW 7 11 4 6 1018.2 1018.2 0.0
11/07:30pm 8.7 8.0 8.6 99 0.0 NW 2 7 1 4 1018.1 1018.1 0.0
11/07:00pm 9.5 9.0 7.9 90 0.8 CALM 0 0 0 0 1018.0 1018.0 0.0
11/06:30pm 10.2 9.4 8.3 88 0.9 N 2 7 1 4 1017.8 1017.8 0.0
11/06:00pm 11.2 10.7 7.7 79 1.7 CALM 0 0 0 0 1017.5 1017.5 0.0
11/05:30pm 11.5 9.3 7.8 78 1.8 NNE 9 11 5 6 1017.3 1017.3 0.0
11/05:00pm 13.0 9.9 7.2 68 2.8 NE 13 17 7 9 1017.0 1017.0 0.0
11/04:30pm 14.0 10.5 7.3 64 3.3 ENE 15 20 8 11 1017.0 1017.0 0.0
11/04:00pm 14.8 11.3 7.4 61 3.7 ENE 15 19 8 10 1017.2 1017.2 0.0
11/03:30pm 14.9 12.3 7.7 62 3.6 NNE 11 15 6 8 1017.4 1017.4 0.0
11/03:00pm 15.2 13.1 6.5 56 4.2 N 7 15 4 8 1017.6 1017.6 0.0
11/02:30pm 15.0 12.6 6.8 58 4.0 NNW 9 15 5 8 1017.7 1017.7 0.0
11/02:00pm 15.0 12.2 6.8 58 4.0 NNE 11 17 6 9 1017.9 1017.9 0.0
11/01:30pm 14.8 11.1 6.1 56 4.2 NNW 15 26 8 14 1018.1 1018.1 0.0
11/01:00pm 14.7 11.9 6.8 59 3.9 NNE 11 19 6 10 1018.4 1018.4 0.0
11/12:30pm 14.8 12.6 6.4 57 4.1 NNE 7 13 4 7 1019.0 1019.1 0.0
11/12:00pm 14.9 13.0 6.5 57 4.1 NNE 6 13 3 7 1019.8 1019.9 0.0
11/11:30am 14.8 12.3 6.4 57 4.1 NNW 9 15 5 8 1020.4 1020.5 0.0
11/11:00am 14.4 11.5 6.3 58 3.9 NW 11 15 6 8 1020.8 1020.9 0.0
11/10:30am 14.7 12.0 8.9 68 3.0 WNW 13 17 7 9 1021.0 1021.1 0.0
11/10:00am 12.5 9.7 8.6 77 1.9 WNW 13 17 7 9 1021.1 1021.2 0.0
11/09:30am 11.6 8.1 8.6 82 1.5 WNW 17 20 9 11 1021.1 1021.2 0.0
11/09:00am 11.0 7.4 8.4 84 1.3 WNW 17 20 9 11 1021.1 1021.2 1.2
11/08:30am 10.5 7.7 8.6 88 0.9 WNW 13 17 7 9 1021.1 1021.2 1.2
11/08:00am 10.0 7.2 8.4 90 0.8 WNW 13 17 7 9 1021.2 1021.3 1.2
11/07:30am 9.7 6.5 8.5 92 0.6 WNW 15 19 8 10 1021.3 1021.4 1.2
11/07:00am 9.3 5.8 8.8 97 0.2 WNW 17 20 9 11 1021.3 1021.4 1.2
11/06:30am 9.1 6.0 9.0 99 0.0 NW 15 17 8 9 1021.1 1021.2 1.2
11/06:00am 8.8 6.4 8.8 100 0.0 NW 11 15 6 8 1020.8 1020.9 1.2
11/05:30am 8.7 5.6 8.7 100 0.0 WNW 15 19 8 10 1020.7 1020.8 1.2
11/05:00am 8.8 8.5 8.8 100 0.0 CALM 0 0 0 0 1021.0 1021.1 1.2
11/04:30am 8.9 8.6 8.8 99 0.0 CALM 0 6 0 3 1020.9 1021.0 1.2
11/04:00am 8.9 6.9 8.8 99 0.0 NW 9 11 5 6 1020.7 1020.8 1.2
11/03:30am 9.1 6.7 8.6 97 0.2 NW 11 13 6 7 1020.7 1020.8 1.2
11/03:00am 8.9 6.5 8.6 98 0.1 WNW 11 15 6 8 1020.8 1020.9 1.2
11/02:30am 9.2 6.4 8.7 97 0.2 WNW 13 15 7 8 1021.0 1021.1 1.2
11/02:00am 9.4 7.4 8.6 95 0.4 W 9 11 5 6 1021.3 1021.4 1.2
11/01:30am 9.6 7.2 8.5 93 0.5 SW 11 17 6 9 1021.5 1021.6 1.2
11/01:20am 9.4 7.9 8.5 94 0.4 SW 6 9 3 5 1021.5 1021.6 1.2
11/01:00am 9.7 6.8 8.0 89 0.8 W 13 15 7 8 1021.2 1021.3 1.2
11/12:30am 9.0 7.0 8.7 98 0.1 NW 9 13 5 7 1021.2 1021.3 1.2
11/12:00am 9.4 7.7 8.2 92 0.6 N 7 9 4 5 1021.2 1021.3 1.2
 
Date/Time
EST
Temp
°C
App
Temp
°C
Dew
Point
°C
Rel
Hum
%
Delta-T
°C
Wind Press
QNH
hPa
Press
MSL
hPa
Rain since
9am
mm
Dir  Spd
km/h
Gust
km/h
Spd
kts
Gust
kts
10/11:30pm 9.3 7.6 8.5 95 0.4 SSW 7 9 4 5 1021.2 1021.3 1.2
10/11:00pm 8.9 6.3 7.8 93 0.5 SW 11 20 6 11 1021.0 1021.1 1.2
10/10:30pm 8.9 6.9 7.0 88 0.9 SSW 7 9 4 5 1021.3 1021.4 1.2
10/10:00pm 9.7 7.8 9.2 97 0.2 SSE 9 19 5 10 1021.4 1021.5 1.2
10/09:30pm 8.9 6.5 8.8 99 0.0 WSW 11 13 6 7 1021.4 1021.5 1.2
10/09:00pm 9.3 7.1 9.2 99 0.0 SW 11 15 6 8 1021.7 1021.8 1.2
10/08:30pm 9.8 8.3 9.3 97 0.2 S 7 11 4 6 1021.9 1022.0 1.2
10/08:00pm 10.8 7.9 8.0 83 1.4 SSW 13 20 7 11 1021.7 1021.8 1.2
10/07:30pm 10.9 8.3 7.8 81 1.5 SSW 11 17 6 9 1021.3 1021.4 1.2
10/07:00pm 10.7 7.7 7.8 82 1.4 S 13 20 7 11 1021.2 1021.3 1.2
10/06:30pm 11.0 7.1 7.3 78 1.8 SSW 17 24 9 13 1020.9 1021.0 1.2
10/06:00pm 11.2 6.8 7.3 77 1.9 SSW 20 26 11 14 1020.7 1020.8 1.2
10/05:30pm 11.2 7.1 7.7 79 1.7 SSW 19 30 10 16 1020.5 1020.6 1.2
10/05:00pm 11.4 6.3 7.5 77 1.9 SSW 24 35 13 19 1020.2 1020.3 1.2
10/04:30pm 11.9 7.2 7.6 75 2.1 SSW 22 32 12 17 1019.9 1020.0 1.2
10/04:00pm 12.3 6.8 7.6 73 2.3 S 26 39 14 21 1019.8 1019.9 1.2
10/03:30pm 12.5 7.6 8.4 76 2.0 SSW 24 37 13 20 1019.5 1019.6 1.2
10/03:00pm 12.2 6.5 8.5 78 1.8 SSW 28 39 15 21 1019.4 1019.5 1.2
10/02:30pm 12.6 7.9 9.4 81 1.6 S 24 44 13 24 1019.4 1019.5 1.2
10/02:00pm 11.7 8.4 10.8 94 0.5 S 19 26 10 14 1019.5 1019.6 1.2
10/01:30pm 11.6 7.8 11.3 98 0.2 SSW 22 35 12 19 1019.6 1019.7 1.0
10/01:04pm 11.6 6.6 11.1 97 0.3 S 28 39 15 21 1019.6 1019.7 1.0
10/01:00pm 11.4 6.2 10.3 93 0.6 SSW 28 39 15 21 1019.6 1019.7 1.0
10/12:30pm 12.2 6.7 10.4 89 0.9 SSW 30 43 16 23 1019.5 1019.6 1.0
10/12:00pm 12.4 7.3 11.9 97 0.3 SSW 30 39 16 21 1019.4 1019.5 1.0
10/11:39am 11.5 6.6 11.3 99 0.1 S 28 41 15 22 1019.6 1019.7 1.0
10/11:30am 12.1 8.2 12.1 100 0.0 S 24 35 13 19 1019.7 1019.8 1.0
10/11:24am 11.6 7.5 11.6 100 0.0 S 24 35 13 19 1019.8 1019.9 1.0
10/11:08am 10.9 6.6 10.7 99 0.1 SSW 24 32 13 17 1019.8 1019.9 0.6
10/11:00am 11.7 8.1 11.7 100 0.0 S 22 37 12 20 1019.8 1019.9 0.2
10/10:33am 11.3 6.6 10.5 95 0.4 S 26 39 14 21 1019.6 1019.7 0.0
10/10:30am 11.4 5.8 10.3 93 0.6 S 30 41 16 22 1019.6 1019.7 0.0
10/10:25am 11.6 5.6 10.0 90 0.8 S 32 41 17 22 1019.7 1019.8 0.0
10/10:00am 11.8 6.5 9.9 88 1.0 SSW 28 43 15 23 1019.5 1019.6 0.0
10/09:30am 11.9 6.0 10.6 92 0.7 SSW 32 43 17 23 1018.9 1019.0 0.0
10/09:00am 11.7 7.2 11.4 98 0.2 SSW 26 37 14 20 1018.6 1018.6 72.6
10/08:30am 12.8 8.8 10.3 85 1.3 SSW 22 28 12 15 1018.1 1018.1 72.6
10/08:00am 13.3 9.6 9.4 77 2.0 S 19 26 10 14 1017.9 1017.9 72.6
10/07:30am 12.6 7.4 8.9 78 1.9 SSE 26 35 14 19 1017.3 1017.3 72.6
10/07:00am 12.3 6.7 8.6 78 1.8 SSE 28 41 15 22 1016.8 1016.8 72.6
10/06:30am 12.5 7.9 8.0 74 2.2 SSE 22 33 12 18 1016.3 1016.3 72.4
10/06:00am 12.7 6.4 7.2 69 2.7 SSE 30 44 16 24 1016.2 1016.2 72.4
10/05:33am 12.8 5.8 8.3 74 2.2 SSE 35 56 19 30 1015.6 1015.6 72.4
10/05:30am 12.7 5.3 8.2 74 2.2 SSE 37 50 20 27 1015.4 1015.4 72.4
10/05:00am 11.8 6.3 10.7 93 0.6 SSE 30 48 16 26 1014.7 1014.7 72.4
10/04:54am 12.0 7.2 11.8 99 0.1 SSE 28 48 15 26 1014.7 1014.7 72.4
10/04:47am 11.6 7.2 11.6 100 0.0 SSE 26 39 14 21 1014.7 1014.7 72.4
10/04:37am 11.3 6.4 11.3 100 0.0 SSE 28 41 15 22 1014.6 1014.6 72.2
10/04:30am 11.6 6.3 11.4 99 0.1 SSE 30 41 16 22 1014.7 1014.7 72.0
10/04:19am 11.9 7.2 11.9 100 0.0 SSE 28 50 15 27 1014.4 1014.4 71.6
10/04:00am 11.4 6.1 11.4 100 0.0 SSE 30 43 16 23 1014.4 1014.4 71.4
10/03:30am 11.6 6.0 11.6 100 0.0 SSE 32 52 17 28 1014.1 1014.1 68.2
10/03:09am 12.0 6.9 12.0 100 0.0 SSE 30 50 16 27 1013.7 1013.7 66.2
10/03:05am 11.6 6.3 11.4 99 0.1 SSE 30 46 16 25 1013.7 1013.7 65.8
10/03:00am 12.3 6.6 11.0 92 0.7 SSE 32 46 17 25 1013.6 1013.6 64.8
10/02:30am 12.1 7.0 11.9 99 0.1 SSE 30 43 16 23 1013.6 1013.6 64.4
10/02:00am 12.3 7.7 12.3 100 0.0 SSE 28 46 15 25 1013.4 1013.4 64.0
10/01:57am 12.0 7.3 12.0 100 0.0 SSE 28 39 15 21 1013.5 1013.5 64.0
10/01:48am 11.8 6.1 11.8 100 0.0 SSE 33 48 18 26 1013.3 1013.3 64.0
10/01:39am 11.7 7.3 11.7 100 0.0 SSE 26 43 14 23 1013.5 1013.5 63.6
10/01:30am 11.7 7.3 11.7 100 0.0 SE 26 41 14 22 1013.6 1013.6 63.2
10/01:15am 11.8 7.0 11.8 100 0.0 SSE 28 41 15 22 1013.6 1013.6 63.2
10/01:00am 11.8 6.7 11.8 100 0.0 SSE 30 44 16 24 1013.5 1013.5 63.0
10/12:49am 11.7 6.5 11.7 100 0.0 SSE 30 39 16 21 1013.5 1013.5 63.0
10/12:36am 11.7 6.9 11.7 100 0.0 SSE 28 44 15 24 1013.4 1013.4 63.0
10/12:30am 11.7 7.3 11.7 100 0.0 SSE 26 44 14 24 1013.5 1013.5 63.0
10/12:20am 11.4 6.9 11.4 100 0.0 SSE 26 33 14 18 1013.5 1013.5 62.6
10/12:14am 11.5 6.7 11.5 100 0.0 SE 28 39 15 21 1013.6 1013.6 61.6
10/12:02am 11.6 6.0 11.6 100 0.0 SSE 32 46 17 25 1013.4 1013.4 60.6
10/12:00am 11.7 6.2 11.7 100 0.0 SSE 32 46 17 25 1013.4 1013.4 60.4
 
Date/Time
EST
Temp
°C
App
Temp
°C
Dew
Point
°C
Rel
Hum
%
Delta-T
°C
Wind Press
QNH
hPa
Press
MSL
hPa
Rain since
9am
mm
Dir  Spd
km/h
Gust
km/h
Spd
kts
Gust
kts
09/11:59pm 11.6 6.0 11.6 100 0.0 SSE 32 46 17 25 1013.4 1013.4 60.4
09/11:46pm 11.7 6.5 11.7 100 0.0 SSE 30 39 16 21 1013.3 1013.3 59.8
09/11:30pm 11.7 6.0 11.7 100 0.0 SSE 33 50 18 27 1013.2 1013.2 59.2
09/11:17pm 11.9 5.8 11.9 100 0.0 SSE 35 54 19 29 1013.0 1013.0 58.6
09/11:02pm 11.9 7.2 11.9 100 0.0 SSE 28 46 15 25 1012.9 1012.9 57.8
09/11:00pm 12.0 6.9 12.0 100 0.0 SE 30 46 16 25 1012.9 1012.9 57.8
09/10:30pm 11.6 7.2 11.6 100 0.0 SSE 26 33 14 18 1012.5 1012.6 53.0
09/10:22pm 11.6 6.8 11.6 100 0.0 SSE 28 39 15 21 1012.6 1012.7 51.2
09/10:13pm 11.5 6.3 11.5 100 0.0 SSE 30 44 16 24 1012.8 1012.8 49.8
09/10:00pm 11.6 6.0 11.6 100 0.0 SSE 32 48 17 26 1012.5 1012.6 48.8
09/09:58pm 11.6 6.0 11.6 100 0.0 SSE 32 48 17 26 1012.6 1012.7 48.6
09/09:55pm 11.7 6.0 11.7 100 0.0 SSE 33 48 18 26 1012.5 1012.6 48.4
09/09:35pm 12.0 6.4 12.0 100 0.0 SSE 33 54 18 29 1012.1 1012.2 47.8
09/09:34pm 12.0 6.5 12.0 100 0.0 SSE 32 54 17 29 1012.1 1012.2 47.4
09/09:30pm 12.1 7.1 12.1 100 0.0 SSE 30 41 16 22 1012.0 1012.1 47.0
09/09:00pm 12.2 6.8 12.2 100 0.0 SSE 32 46 17 25 1011.9 1012.0 46.0
09/08:37pm 12.4 7.1 12.4 100 0.0 SSE 32 50 17 27 1011.7 1011.8 45.0
09/08:30pm 12.1 6.5 12.1 100 0.0 SSE 33 46 18 25 1011.7 1011.8 45.0
09/08:02pm 12.4 7.5 12.4 100 0.0 SSE 30 52 16 28 1011.2 1011.3 44.2
09/08:00pm 12.4 7.1 12.4 100 0.0 SSE 32 52 17 28 1011.1 1011.2 44.2
09/07:55pm 12.6 7.1 12.6 100 0.0 SSE 33 52 18 28 1011.0 1011.1 44.2
09/07:36pm 12.1 6.7 12.1 100 0.0 SSE 32 43 17 23 1010.9 1011.0 43.2
09/07:30pm 12.3 6.9 12.3 100 0.0 SSE 32 44 17 24 1010.9 1011.0 42.4

Other formats

Comma delimited format used in spreadsheet applications
http://www.bom.gov.au/fwo/IDN60801/IDN60801.94750.axf

JavaScript Object Notation format (JSON) in row-major order
http://www.bom.gov.au/fwo/IDN60801/IDN60801.94750.json

Data quality

Most of these data are generated automatically and are frequently updated. Quality checks on data are not normally performed. It is possible for incorrect values to appear. Refer to information at About Latest Weather Observations and please check the disclaimer before using these data.